Time;durP1;ratioP1;P1;durP2;ratioP2;P2;SDS_P1;SDS_P2;PMS_P1;PMS_P2;Temp;Humidity;BMP_temperature;BMP_pressure;BME280_temperature;BME280_humidity;BME280_pressure;Samples;Min_cycle;Max_cycle;Signal;HPM_P1;HPM_P2
2024/04/02 00:01:08;;;;;;;;;;;13.80;67.10;;;;;;5051010;28;20274;-71
2024/04/02 00:03:34;;;;;;;;;;;13.80;67.50;;;;;;5051981;28;19921;-75
2024/04/02 00:06:00;;;;;;;;;;;13.80;67.40;;;;;;5051325;28;20407;-75
2024/04/02 00:08:28;;;;;;;;;;;13.80;67.10;;;;;;5051610;28;19921;-75
2024/04/02 00:10:55;;;;;;;;;;;13.80;67.20;;;;;;5052486;28;20328;-71
2024/04/02 00:13:21;;;;;;;;;;;13.80;67.20;;;;;;5051513;28;20015;-71
2024/04/02 00:15:48;;;;;;;;;;;13.90;67.00;;;;;;5052364;28;19999;-71
2024/04/02 00:18:18;;;;;;;;;;;13.90;66.80;;;;;;5052563;28;20015;-75
2024/04/02 00:20:44;;;;;;;;;;;13.90;66.80;;;;;;5034177;28;20173;-71
2024/04/02 00:23:09;;;;;;;;;;;13.80;66.50;;;;;;5052612;28;19925;-71
2024/04/02 00:25:36;;;;;;;;;;;13.80;67.20;;;;;;5050609;28;20433;-74
2024/04/02 00:28:15;;;;;;;;;;;13.80;67.00;;;;;;5050704;28;20225;-71
2024/04/02 00:30:41;;;;;;;;;;;13.80;67.50;;;;;;5050232;28;19929;-71
2024/04/02 00:33:07;;;;;;;;;;;13.80;67.80;;;;;;5051065;28;20453;-73
2024/04/02 00:35:33;;;;;;;;;;;13.70;67.80;;;;;;5051157;28;19916;-74
2024/04/02 00:37:59;;;;;;;;;;;13.60;67.30;;;;;;5051011;28;19971;-74
2024/04/02 00:40:24;;;;;;;;;;;13.60;67.30;;;;;;5051537;28;19925;-74
2024/04/02 00:42:50;;;;;;;;;;;13.60;66.90;;;;;;5051070;28;19985;-71
2024/04/02 00:45:18;;;;;;;;;;;13.50;67.00;;;;;;5052232;28;19999;-71
2024/04/02 00:47:45;;;;;;;;;;;13.40;66.50;;;;;;5050959;28;19917;-74
2024/04/02 00:50:11;;;;;;;;;;;13.40;66.80;;;;;;5050478;28;19925;-74
2024/04/02 00:52:39;;;;;;;;;;;13.30;66.50;;;;;;5052410;28;20426;-71
2024/04/02 00:55:05;;;;;;;;;;;13.20;65.90;;;;;;5050557;28;19917;-71
2024/04/02 00:57:31;;;;;;;;;;;13.10;66.70;;;;;;5050288;28;19921;-71
2024/04/02 01:00:00;;;;;;;;;;;13.00;65.00;;;;;;5050603;28;19913;-71
2024/04/02 01:02:26;;;;;;;;;;;13.00;66.60;;;;;;5050943;28;20103;-74
2024/04/02 01:04:52;;;;;;;;;;;12.90;66.90;;;;;;5051801;28;20408;-74
2024/04/02 01:07:18;;;;;;;;;;;12.70;65.80;;;;;;5053326;28;20160;-74
2024/04/02 01:09:44;;;;;;;;;;;12.70;67.00;;;;;;5038001;28;19919;-74
2024/04/02 01:12:10;;;;;;;;;;;12.70;66.70;;;;;;5037634;28;19920;-71
2024/04/02 01:14:55;;;;;;;;;;;12.70;67.00;;;;;;5054536;28;19966;-70
2024/04/02 01:17:21;;;;;;;;;;;12.60;66.60;;;;;;5056037;28;19924;-74
2024/04/02 01:19:47;;;;;;;;;;;12.70;66.60;;;;;;5055664;28;19934;-71
2024/04/02 01:22:12;;;;;;;;;;;12.60;66.70;;;;;;5037510;28;20003;-71
2024/04/02 01:24:39;;;;;;;;;;;12.60;66.90;;;;;;5055721;28;20007;-71
2024/04/02 01:27:05;;;;;;;;;;;12.60;66.90;;;;;;5054244;28;19920;-71
2024/04/02 01:29:31;;;;;;;;;;;12.60;67.30;;;;;;5037759;28;19916;-74
2024/04/02 01:31:57;;;;;;;;;;;12.60;66.10;;;;;;5054762;28;20019;-73
2024/04/02 01:34:22;;;;;;;;;;;12.50;67.40;;;;;;5054136;28;20024;-71
2024/04/02 01:36:48;;;;;;;;;;;12.50;67.70;;;;;;5055638;28;20012;-74
2024/04/02 01:39:14;;;;;;;;;;;12.30;68.70;;;;;;5037645;28;20012;-71
2024/04/02 01:41:40;;;;;;;;;;;12.20;70.20;;;;;;5054846;28;19917;-74
2024/04/02 01:44:06;;;;;;;;;;;12.10;70.80;;;;;;5053993;28;20445;-70
2024/04/02 01:46:32;;;;;;;;;;;12.00;70.30;;;;;;5053910;28;19928;-74
2024/04/02 01:48:58;;;;;;;;;;;12.00;70.20;;;;;;5055392;28;19917;-73
2024/04/02 01:51:26;;;;;;;;;;;11.80;70.30;;;;;;5053545;28;19920;-74
2024/04/02 01:53:52;;;;;;;;;;;11.80;69.90;;;;;;5054651;28;19931;-75
2024/04/02 01:56:17;;;;;;;;;;;11.80;69.20;;;;;;5037085;28;19991;-71
2024/04/02 01:58:43;;;;;;;;;;;11.80;69.50;;;;;;5053702;28;19917;-70
2024/04/02 02:01:09;;;;;;;;;;;11.80;69.30;;;;;;5052766;28;19917;-74
2024/04/02 02:03:35;;;;;;;;;;;11.80;70.10;;;;;;5054911;28;19927;-75
2024/04/02 02:06:01;;;;;;;;;;;11.80;68.90;;;;;;5036426;28;19923;-75
2024/04/02 02:08:27;;;;;;;;;;;11.80;69.30;;;;;;5053317;28;19921;-73
2024/04/02 02:11:11;;;;;;;;;;;11.90;70.00;;;;;;5052885;28;20431;-74
2024/04/02 02:13:39;;;;;;;;;;;12.00;69.50;;;;;;5053889;28;19925;-71
2024/04/02 02:16:05;;;;;;;;;;;12.00;69.60;;;;;;5054036;28;20365;-74
2024/04/02 02:18:31;;;;;;;;;;;12.00;69.20;;;;;;5053983;28;19943;-70
2024/04/02 02:20:58;;;;;;;;;;;12.10;69.70;;;;;;5052312;28;19944;-71
2024/04/02 02:23:24;;;;;;;;;;;12.00;70.10;;;;;;5053136;28;19927;-71
2024/04/02 02:25:51;;;;;;;;;;;12.00;70.00;;;;;;5053059;28;19955;-70
2024/04/02 02:28:17;;;;;;;;;;;12.00;69.60;;;;;;5053656;28;19921;-74
2024/04/02 02:30:43;;;;;;;;;;;11.90;69.50;;;;;;5054363;28;19917;-70
2024/04/02 02:33:09;;;;;;;;;;;12.00;70.10;;;;;;5053683;28;20394;-74
2024/04/02 02:35:35;;;;;;;;;;;12.00;69.70;;;;;;5054563;28;19913;-74
2024/04/02 02:38:01;;;;;;;;;;;12.00;68.90;;;;;;5054909;28;19964;-70
2024/04/02 02:40:48;;;;;;;;;;;12.00;69.50;;;;;;5052554;28;19995;-70
2024/04/02 02:43:13;;;;;;;;;;;12.10;69.50;;;;;;5054050;28;19944;-70
2024/04/02 02:45:49;;;;;;;;;;;12.10;69.70;;;;;;5053847;28;19912;-74
2024/04/02 02:48:15;;;;;;;;;;;12.10;69.50;;;;;;5036224;28;19924;-75
2024/04/02 02:50:41;;;;;;;;;;;12.10;69.50;;;;;;5051394;28;19991;-74
2024/04/02 02:53:06;;;;;;;;;;;12.10;69.80;;;;;;5052468;28;19939;-74
2024/04/02 02:55:32;;;;;;;;;;;12.00;68.90;;;;;;5052201;28;19925;-75
2024/04/02 02:57:58;;;;;;;;;;;12.00;68.30;;;;;;5052200;28;20365;-75
2024/04/02 03:00:24;;;;;;;;;;;12.10;67.80;;;;;;5052954;28;20267;-70
2024/04/02 03:02:50;;;;;;;;;;;12.10;67.80;;;;;;5052186;28;19921;-71
2024/04/02 03:05:16;;;;;;;;;;;12.00;66.90;;;;;;5053338;28;20288;-71
2024/04/02 03:07:42;;;;;;;;;;;12.00;67.30;;;;;;5053436;28;19931;-74
2024/04/02 03:10:08;;;;;;;;;;;12.00;67.70;;;;;;5051415;28;20389;-70
2024/04/02 03:12:34;;;;;;;;;;;12.10;67.40;;;;;;5052424;28;19923;-71
2024/04/02 03:15:00;;;;;;;;;;;12.10;67.20;;;;;;5052105;28;19920;-74
2024/04/02 03:17:25;;;;;;;;;;;12.10;67.50;;;;;;5052206;28;20284;-70
2024/04/02 03:19:52;;;;;;;;;;;12.10;67.90;;;;;;5052551;28;20288;-75
2024/04/02 03:22:18;;;;;;;;;;;12.00;67.90;;;;;;5053173;28;19944;-71
2024/04/02 03:24:43;;;;;;;;;;;12.10;68.00;;;;;;5052898;28;19939;-71
2024/04/02 03:27:10;;;;;;;;;;;12.10;68.20;;;;;;5051377;28;19917;-70
2024/04/02 03:29:36;;;;;;;;;;;12.00;68.30;;;;;;5052582;28;19920;-75
2024/04/02 03:32:02;;;;;;;;;;;12.00;70.10;;;;;;5050317;28;19944;-74
2024/04/02 03:34:28;;;;;;;;;;;11.90;70.00;;;;;;5035170;28;20396;-71
2024/04/02 03:36:54;;;;;;;;;;;11.80;69.70;;;;;;5051353;28;19917;-70
2024/04/02 03:39:21;;;;;;;;;;;11.80;70.60;;;;;;5034876;28;19916;-71
2024/04/02 03:41:48;;;;;;;;;;;11.60;70.30;;;;;;5050762;28;19916;-74
2024/04/02 03:44:15;;;;;;;;;;;11.40;70.70;;;;;;5051086;28;19916;-70
2024/04/02 03:46:41;;;;;;;;;;;11.40;70.90;;;;;;5052252;28;19925;-70
2024/04/02 03:49:07;;;;;;;;;;;11.30;71.00;;;;;;5052285;28;19928;-75
2024/04/02 03:51:33;;;;;;;;;;;11.20;71.40;;;;;;5050412;28;19928;-75
2024/04/02 03:53:59;;;;;;;;;;;11.20;72.20;;;;;;5050944;28;20523;-71
2024/04/02 03:56:25;;;;;;;;;;;11.20;72.10;;;;;;5052088;28;20070;-70
2024/04/02 03:58:50;;;;;;;;;;;11.20;72.80;;;;;;5052073;28;19928;-70
2024/04/02 04:01:16;;;;;;;;;;;11.10;73.40;;;;;;5051720;28;20294;-71
2024/04/02 04:03:43;;;;;;;;;;;11.00;74.10;;;;;;5051126;28;20334;-75
2024/04/02 04:06:08;;;;;;;;;;;10.90;74.70;;;;;;5050844;28;19966;-71
2024/04/02 04:08:37;;;;;;;;;;;10.90;74.80;;;;;;5050776;28;20370;-75
2024/04/02 04:11:04;;;;;;;;;;;10.80;75.30;;;;;;5033617;28;19917;-70
2024/04/02 04:13:30;;;;;;;;;;;10.90;74.40;;;;;;5052331;28;19967;-75
2024/04/02 04:15:57;;;;;;;;;;;10.90;74.30;;;;;;5050482;28;19912;-70
2024/04/02 04:18:24;;;;;;;;;;;11.00;74.00;;;;;;5034957;28;19920;-75
2024/04/02 04:21:09;;;;;;;;;;;11.10;73.70;;;;;;5050645;28;19917;-70
2024/04/02 04:23:35;;;;;;;;;;;11.10;73.80;;;;;;5050600;28;20223;-71
2024/04/02 04:26:03;;;;;;;;;;;11.00;74.10;;;;;;5050187;28;19913;-70
2024/04/02 04:28:29;;;;;;;;;;;10.90;74.60;;;;;;5050599;28;19920;-75
2024/04/02 04:30:56;;;;;;;;;;;10.90;74.90;;;;;;5049824;28;19916;-74
2024/04/02 04:33:22;;;;;;;;;;;10.90;74.70;;;;;;5052174;28;20278;-74
2024/04/02 04:35:49;;;;;;;;;;;10.90;74.60;;;;;;5050416;28;19919;-70
2024/04/02 04:38:15;;;;;;;;;;;10.90;74.60;;;;;;5050386;28;19930;-71
2024/04/02 04:40:42;;;;;;;;;;;10.90;75.30;;;;;;5049877;28;20369;-74
2024/04/02 04:43:08;;;;;;;;;;;10.90;75.80;;;;;;5051475;28;19921;-71
2024/04/02 04:45:34;;;;;;;;;;;10.90;75.40;;;;;;5033344;28;20387;-71
2024/04/02 04:48:04;;;;;;;;;;;10.90;75.10;;;;;;5050500;28;19975;-74
2024/04/02 04:50:30;;;;;;;;;;;11.00;74.60;;;;;;5049727;28;19991;-74
2024/04/02 04:52:56;;;;;;;;;;;11.00;74.10;;;;;;5033875;28;19956;-70
2024/04/02 04:55:21;;;;;;;;;;;11.10;73.50;;;;;;5051355;28;20007;-75
2024/04/02 04:57:47;;;;;;;;;;;11.20;73.20;;;;;;5049997;28;20016;-70
2024/04/02 05:00:14;;;;;;;;;;;11.20;72.80;;;;;;5049596;28;20003;-72
2024/04/02 05:02:39;;;;;;;;;;;11.20;72.00;;;;;;5051785;28;20003;-74
2024/04/02 05:05:07;;;;;;;;;;;11.30;72.50;;;;;;5050077;28;20417;-70
2024/04/02 05:07:33;;;;;;;;;;;11.20;72.30;;;;;;5033243;28;19920;-71
2024/04/02 05:09:58;;;;;;;;;;;11.20;72.40;;;;;;5049977;28;19996;-75
2024/04/02 05:12:24;;;;;;;;;;;11.30;72.40;;;;;;5050955;28;19966;-74
2024/04/02 05:14:50;;;;;;;;;;;11.30;72.20;;;;;;5049722;28;19955;-70
2024/04/02 05:17:16;;;;;;;;;;;11.30;72.40;;;;;;5051279;28;20019;-75
2024/04/02 05:19:42;;;;;;;;;;;11.30;72.40;;;;;;5051074;28;20003;-73
2024/04/02 05:22:08;;;;;;;;;;;11.30;72.40;;;;;;5032663;28;20044;-75
2024/04/02 05:24:34;;;;;;;;;;;11.30;72.70;;;;;;5049832;28;19912;-75
2024/04/02 05:27:04;;;;;;;;;;;11.40;72.50;;;;;;5049678;28;19994;-71
2024/04/02 05:29:30;;;;;;;;;;;11.50;71.80;;;;;;5049775;28;20147;-70
2024/04/02 05:31:56;;;;;;;;;;;11.50;71.20;;;;;;5049210;28;19921;-70
2024/04/02 05:34:22;;;;;;;;;;;11.60;70.90;;;;;;5051017;28;19916;-70
2024/04/02 05:36:47;;;;;;;;;;;11.70;71.20;;;;;;5049534;28;19994;-71
2024/04/02 05:39:13;;;;;;;;;;;11.90;70.80;;;;;;5033245;28;19920;-75
2024/04/02 05:41:39;;;;;;;;;;;12.00;70.60;;;;;;5050613;28;20019;-71
2024/04/02 05:44:05;;;;;;;;;;;12.00;70.60;;;;;;5049668;28;20282;-75
2024/04/02 05:46:31;;;;;;;;;;;12.10;70.60;;;;;;5049345;28;19980;-70
2024/04/02 05:48:57;;;;;;;;;;;12.30;70.10;;;;;;5049607;28;19925;-70
2024/04/02 05:51:23;;;;;;;;;;;12.30;70.10;;;;;;5050136;28;20399;-71
2024/04/02 05:53:48;;;;;;;;;;;12.40;69.80;;;;;;5050294;28;20014;-75
2024/04/02 05:56:14;;;;;;;;;;;12.40;69.60;;;;;;5054471;28;19960;-74
2024/04/02 05:58:40;;;;;;;;;;;12.40;69.80;;;;;;5053359;28;20011;-70
2024/04/02 06:01:06;;;;;;;;;;;12.30;70.50;;;;;;5054045;28;19917;-70
2024/04/02 06:03:32;;;;;;;;;;;12.30;69.80;;;;;;5054383;28;20377;-75
2024/04/02 06:05:59;;;;;;;;;;;12.30;70.30;;;;;;5036387;28;19912;-74
2024/04/02 06:08:25;;;;;;;;;;;12.30;69.90;;;;;;5053386;28;19971;-75
2024/04/02 06:10:51;;;;;;;;;;;12.30;69.50;;;;;;5052345;28;19925;-70
2024/04/02 06:13:17;;;;;;;;;;;12.40;69.60;;;;;;5054474;28;20285;-70
2024/04/02 06:15:44;;;;;;;;;;;12.40;69.30;;;;;;5054004;28;19917;-75
2024/04/02 06:18:10;;;;;;;;;;;12.50;69.20;;;;;;5036343;28;19921;-71
2024/04/02 06:20:35;;;;;;;;;;;12.60;68.50;;;;;;5052252;28;19924;-71
2024/04/02 06:23:01;;;;;;;;;;;12.60;68.60;;;;;;5053066;28;19924;-71
2024/04/02 06:25:28;;;;;;;;;;;12.70;68.80;;;;;;5052772;28;20023;-71
2024/04/02 06:27:54;;;;;;;;;;;12.70;68.50;;;;;;5052646;28;19924;-75
2024/04/02 06:30:19;;;;;;;;;;;12.70;68.10;;;;;;5052188;28;19919;-75
2024/04/02 06:32:45;;;;;;;;;;;12.70;68.10;;;;;;5054215;28;20008;-75
2024/04/02 06:35:11;;;;;;;;;;;12.70;68.00;;;;;;5052547;28;20007;-70
2024/04/02 06:37:37;;;;;;;;;;;12.70;67.70;;;;;;5052585;28;19924;-75
2024/04/02 06:40:04;;;;;;;;;;;12.80;68.20;;;;;;5052109;28;19966;-71
2024/04/02 06:42:30;;;;;;;;;;;12.90;67.80;;;;;;5053990;28;19955;-75
2024/04/02 06:44:56;;;;;;;;;;;12.90;67.80;;;;;;5052269;28;19912;-71
2024/04/02 06:47:22;;;;;;;;;;;13.00;67.10;;;;;;5052620;28;20007;-71
2024/04/02 06:49:48;;;;;;;;;;;13.10;66.70;;;;;;5052342;28;20346;-74
2024/04/02 06:52:14;;;;;;;;;;;13.10;66.30;;;;;;5053159;28;19921;-71
2024/04/02 06:54:40;;;;;;;;;;;13.10;66.00;;;;;;5052281;28;20378;-75
2024/04/02 06:57:08;;;;;;;;;;;13.20;65.50;;;;;;5053451;28;20015;-71
2024/04/02 06:59:34;;;;;;;;;;;13.20;64.70;;;;;;5052159;28;19916;-71
2024/04/02 07:02:00;;;;;;;;;;;13.10;65.30;;;;;;5051582;28;19920;-71
2024/04/02 07:04:28;;;;;;;;;;;13.20;66.30;;;;;;5051662;28;19982;-71
2024/04/02 07:06:54;;;;;;;;;;;13.30;65.90;;;;;;5035250;28;19967;-75
2024/04/02 07:09:20;;;;;;;;;;;13.30;66.60;;;;;;5035341;28;20249;-75
2024/04/02 07:11:45;;;;;;;;;;;13.20;64.80;;;;;;5052675;28;20397;-75
2024/04/02 07:14:11;;;;;;;;;;;13.20;63.30;;;;;;5053019;28;20382;-70
2024/04/02 07:16:37;;;;;;;;;;;13.30;65.20;;;;;;5053019;28;19948;-71
2024/04/02 07:19:03;;;;;;;;;;;13.40;64.30;;;;;;5051863;28;19920;-72
2024/04/02 07:21:29;;;;;;;;;;;13.60;63.30;;;;;;5051289;28;20330;-75
2024/04/02 07:23:55;;;;;;;;;;;13.70;63.50;;;;;;5052999;28;20019;-75
2024/04/02 07:26:22;;;;;;;;;;;13.80;61.80;;;;;;5051735;28;19913;-75
2024/04/02 07:28:48;;;;;;;;;;;13.80;62.10;;;;;;5051488;28;19920;-75
2024/04/02 07:31:13;;;;;;;;;;;14.10;62.80;;;;;;5050827;28;19923;-74
2024/04/02 07:33:39;;;;;;;;;;;14.50;62.40;;;;;;5051745;28;20007;-71
2024/04/02 07:36:06;;;;;;;;;;;14.90;60.20;;;;;;5035155;28;19917;-74
2024/04/02 07:38:32;;;;;;;;;;;15.20;58.50;;;;;;5051621;28;19952;-74
2024/04/02 07:40:59;;;;;;;;;;;15.60;57.00;;;;;;5050570;28;19916;-73
2024/04/02 07:43:25;;;;;;;;;;;16.10;53.30;;;;;;5053018;28;20374;-72
2024/04/02 07:45:52;;;;;;;;;;;16.50;52.40;;;;;;5052353;28;20421;-74
2024/04/02 07:48:18;;;;;;;;;;;17.10;52.50;;;;;;5052772;28;19925;-75
2024/04/02 07:50:44;;;;;;;;;;;17.70;50.30;;;;;;5050436;28;20011;-71
2024/04/02 07:53:09;;;;;;;;;;;18.10;51.10;;;;;;5051301;28;19920;-74
2024/04/02 07:55:35;;;;;;;;;;;18.70;48.60;;;;;;5052136;28;20345;-74
2024/04/02 07:58:02;;;;;;;;;;;19.20;46.80;;;;;;5051027;28;20401;-74
2024/04/02 08:00:28;;;;;;;;;;;19.80;47.50;;;;;;5050705;28;19923;-75
2024/04/02 08:02:54;;;;;;;;;;;20.30;44.30;;;;;;5051066;28;19928;-72
2024/04/02 08:05:20;;;;;;;;;;;20.80;42.80;;;;;;5050978;28;20406;-75
2024/04/02 08:07:46;;;;;;;;;;;21.30;41.40;;;;;;5052024;28;20425;-72
2024/04/02 08:10:13;;;;;;;;;;;21.80;38.30;;;;;;5051527;28;20004;-73
2024/04/02 08:12:39;;;;;;;;;;;22.40;38.70;;;;;;5050661;28;19920;-75
2024/04/02 08:15:05;;;;;;;;;;;23.00;36.70;;;;;;5050706;28;20393;-72
2024/04/02 08:17:31;;;;;;;;;;;23.50;34.80;;;;;;5050091;28;20128;-75
2024/04/02 08:19:57;;;;;;;;;;;23.90;35.30;;;;;;5050653;28;20433;-72
2024/04/02 08:22:23;;;;;;;;;;;24.50;34.70;;;;;;5050469;28;20023;-74
2024/04/02 08:24:50;;;;;;;;;;;25.10;31.60;;;;;;5051707;28;19917;-73
2024/04/02 08:27:16;;;;;;;;;;;25.20;29.50;;;;;;5050499;28;19916;-73
2024/04/02 08:29:42;;;;;;;;;;;25.70;29.30;;;;;;5051672;28;19921;-75
2024/04/02 08:32:08;;;;;;;;;;;26.10;29.00;;;;;;5051295;28;19979;-73
2024/04/02 08:34:34;;;;;;;;;;;26.10;26.90;;;;;;5051942;28;19921;-72
2024/04/02 08:36:59;;;;;;;;;;;25.70;27.10;;;;;;5033720;28;20239;-73
2024/04/02 08:39:25;;;;;;;;;;;25.80;27.10;;;;;;5050342;28;19917;-74
2024/04/02 08:41:58;;;;;;;;;;;26.10;27.60;;;;;;5051103;28;19928;-75
2024/04/02 08:44:24;;;;;;;;;;;26.70;26.90;;;;;;5033779;28;19917;-74
2024/04/02 08:46:51;;;;;;;;;;;27.10;26.30;;;;;;5051466;28;19962;-74
2024/04/02 08:49:19;;;;;;;;;;;27.50;25.40;;;;;;5050132;28;19986;-72
2024/04/02 08:51:45;;;;;;;;;;;27.70;24.90;;;;;;5050924;28;19921;-73
2024/04/02 08:54:10;;;;;;;;;;;28.60;25.00;;;;;;5050226;28;19922;-73
2024/04/02 08:56:36;;;;;;;;;;;29.10;24.60;;;;;;5049901;28;19999;-74
2024/04/02 09:01:47;;;;;;;;;;;29.80;22.50;;;;;;5049869;28;19943;-74
2024/04/02 09:04:13;;;;;;;;;;;30.00;22.60;;;;;;5050151;28;19917;-73
2024/04/02 09:06:39;;;;;;;;;;;30.10;22.70;;;;;;5049819;28;20313;-74
2024/04/02 09:09:05;;;;;;;;;;;30.30;21.80;;;;;;5050164;28;20019;-73
2024/04/02 09:11:32;;;;;;;;;;;30.50;20.60;;;;;;5049215;28;20428;-74
2024/04/02 09:14:17;;;;;;;;;;;30.50;21.60;;;;;;5049932;28;20409;-74
2024/04/02 09:16:43;;;;;;;;;;;31.00;21.00;;;;;;5033116;28;19978;-73
2024/04/02 09:19:09;;;;;;;;;;;31.10;20.50;;;;;;5049810;28;19927;-74
2024/04/02 09:21:35;;;;;;;;;;;31.60;20.10;;;;;;5050630;28;19996;-73
2024/04/02 09:24:01;;;;;;;;;;;32.10;19.60;;;;;;5033264;28;19946;-74
2024/04/02 09:26:27;;;;;;;;;;;32.60;18.80;;;;;;5051071;28;19917;-74
2024/04/02 09:28:52;;;;;;;;;;;33.00;19.20;;;;;;5052386;28;19916;-74
2024/04/02 09:31:18;;;;;;;;;;;33.00;18.10;;;;;;5053237;28;19917;-72
2024/04/02 09:34:05;;;;;;;;;;;33.00;16.60;;;;;;5036995;28;19916;-74
2024/04/02 09:36:53;;;;;;;;;;;33.00;16.90;;;;;;5053675;28;20398;-73
2024/04/02 09:39:21;;;;;;;;;;;33.00;16.30;;;;;;5053858;28;19924;-74
2024/04/02 09:41:49;;;;;;;;;;;33.20;15.70;;;;;;5053025;28;19986;-73
2024/04/02 09:44:16;;;;;;;;;;;33.00;15.70;;;;;;5053701;28;19917;-75
2024/04/02 09:46:42;;;;;;;;;;;33.00;16.30;;;;;;5053419;28;20027;-73
2024/04/02 09:49:10;;;;;;;;;;;32.60;15.70;;;;;;5053496;28;19956;-74
2024/04/02 09:51:38;;;;;;;;;;;32.30;16.70;;;;;;5052617;28;20015;-74
2024/04/02 09:54:05;;;;;;;;;;;32.90;16.80;;;;;;5053419;28;20376;-73
2024/04/02 09:56:33;;;;;;;;;;;33.10;15.70;;;;;;5036600;28;19919;-73
2024/04/02 09:59:00;;;;;;;;;;;32.40;16.10;;;;;;5053328;28;19921;-73
2024/04/02 10:01:28;;;;;;;;;;;32.50;15.70;;;;;;5035927;28;20482;-73
2024/04/02 10:03:57;;;;;;;;;;;32.50;14.40;;;;;;5053260;28;20020;-75
2024/04/02 10:06:25;;;;;;;;;;;32.60;15.10;;;;;;5053096;28;19923;-73
2024/04/02 10:09:03;;;;;;;;;;;31.70;15.40;;;;;;5053093;28;19920;-73
2024/04/02 10:11:48;;;;;;;;;;;31.80;16.00;;;;;;5052613;28;19923;-74
2024/04/02 10:14:15;;;;;;;;;;;32.40;16.20;;;;;;5053086;28;19958;-74
2024/04/02 10:17:01;;;;;;;;;;;32.70;14.20;;;;;;5052928;28;19927;-73
2024/04/02 10:19:29;;;;;;;;;;;32.50;15.10;;;;;;5053091;28;20423;-74
2024/04/02 10:21:55;;;;;;;;;;;33.20;15.60;;;;;;5052392;28;19921;-75
2024/04/02 10:24:25;;;;;;;;;;;33.50;14.50;;;;;;5036301;28;19917;-73
2024/04/02 10:26:54;;;;;;;;;;;34.00;14.70;;;;;;5035989;28;19917;-75
2024/04/02 10:29:39;;;;;;;;;;;33.90;13.30;;;;;;5052868;28;20088;-73
2024/04/02 10:32:05;;;;;;;;;;;33.80;14.60;;;;;;5052076;28;19971;-73
2024/04/02 10:34:32;;;;;;;;;;;34.20;14.20;;;;;;5053773;28;19916;-73
2024/04/02 10:36:59;;;;;;;;;;;34.80;13.00;;;;;;5053741;28;20016;-73
2024/04/02 10:39:30;;;;;;;;;;;34.80;12.40;;;;;;5051836;28;19916;-73
2024/04/02 10:41:56;;;;;;;;;;;34.90;12.40;;;;;;5053194;28;19921;-75
2024/04/02 10:44:22;;;;;;;;;;;35.40;12.50;;;;;;5052453;28;19921;-76
2024/04/02 10:46:48;;;;;;;;;;;35.40;12.90;;;;;;5053510;28;19923;-74
2024/04/02 10:49:13;;;;;;;;;;;35.80;11.40;;;;;;5052452;28;19959;-73
2024/04/02 10:51:39;;;;;;;;;;;35.90;11.10;;;;;;5051516;28;20370;-75
2024/04/02 10:54:05;;;;;;;;;;;35.80;12.00;;;;;;5053618;28;19921;-75
2024/04/02 10:56:31;;;;;;;;;;;36.00;12.50;;;;;;5053404;28;20305;-75
2024/04/02 10:58:58;;;;;;;;;;;36.00;11.50;;;;;;5053331;28;19971;-74
2024/04/02 11:01:25;;;;;;;;;;;36.00;12.00;;;;;;5051435;28;20369;-73
2024/04/02 11:03:54;;;;;;;;;;;35.40;13.40;;;;;;5053348;28;19923;-74
2024/04/02 11:06:20;;;;;;;;;;;35.10;12.50;;;;;;5052022;28;19912;-75
2024/04/02 11:11:32;;;;;;;;;;;34.90;12.70;;;;;;5053105;28;19978;-73
2024/04/02 11:14:06;;;;;;;;;;;35.10;13.40;;;;;;5035243;28;20591;-74
2024/04/02 11:16:32;;;;;;;;;;;35.60;12.00;;;;;;5051920;28;19967;-75
2024/04/02 11:18:58;;;;;;;;;;;35.20;11.30;;;;;;5053102;28;19917;-75
2024/04/02 11:21:25;;;;;;;;;;;35.40;12.40;;;;;;5051130;28;20373;-75
2024/04/02 11:26:35;;;;;;;;;;;35.80;12.50;;;;;;5051693;28;19920;-75
2024/04/02 11:29:20;;;;;;;;;;;36.10;11.20;;;;;;5051722;28;20007;-73
2024/04/02 11:31:46;;;;;;;;;;;35.70;11.20;;;;;;5052260;28;19920;-73
2024/04/02 11:34:13;;;;;;;;;;;35.90;11.90;;;;;;5052721;28;19919;-73
2024/04/02 11:36:39;;;;;;;;;;;36.20;12.60;;;;;;5052692;28;20298;-72
2024/04/02 11:39:05;;;;;;;;;;;35.90;10.50;;;;;;5051487;28;20007;-73
2024/04/02 11:41:30;;;;;;;;;;;35.60;12.70;;;;;;5051926;28;19916;-75
2024/04/02 11:43:56;;;;;;;;;;;36.00;12.20;;;;;;5034407;28;19946;-74
2024/04/02 11:46:24;;;;;;;;;;;36.50;11.30;;;;;;5050993;28;20439;-73
2024/04/02 11:48:50;;;;;;;;;;;36.20;10.70;;;;;;5052403;28;20136;-75
2024/04/02 11:51:16;;;;;;;;;;;35.00;11.60;;;;;;5051206;28;19917;-73
2024/04/02 11:53:42;;;;;;;;;;;33.30;12.70;;;;;;5051175;28;20306;-73
2024/04/02 11:56:08;;;;;;;;;;;31.90;14.50;;;;;;5052214;28;19944;-74
2024/04/02 12:01:18;;;;;;;;;;;32.40;14.60;;;;;;5051900;28;19959;-73
2024/04/02 12:03:44;;;;;;;;;;;31.30;14.20;;;;;;5034539;28;20019;-74
2024/04/02 12:06:10;;;;;;;;;;;29.40;15.40;;;;;;5052162;28;20331;-75
2024/04/02 12:08:36;;;;;;;;;;;28.20;17.40;;;;;;5052562;28;19920;-74
2024/04/02 12:11:01;;;;;;;;;;;27.10;17.50;;;;;;5050157;28;20349;-72
2024/04/02 12:13:28;;;;;;;;;;;26.30;18.30;;;;;;5052542;28;20298;-72
2024/04/02 12:15:55;;;;;;;;;;;27.00;20.30;;;;;;5051719;28;19920;-74
2024/04/02 12:18:21;;;;;;;;;;;27.80;18.20;;;;;;5051203;28;19921;-75
2024/04/02 12:20:47;;;;;;;;;;;28.60;18.10;;;;;;5050173;28;20007;-75
2024/04/02 12:23:13;;;;;;;;;;;30.40;16.00;;;;;;5050863;28;19999;-73
2024/04/02 12:25:39;;;;;;;;;;;31.80;16.10;;;;;;5051655;28;19954;-75
2024/04/02 12:28:05;;;;;;;;;;;32.80;13.20;;;;;;5051988;28;19991;-73
2024/04/02 12:30:31;;;;;;;;;;;32.50;13.70;;;;;;5033034;28;19920;-73
2024/04/02 12:32:57;;;;;;;;;;;33.60;14.60;;;;;;5050171;28;20420;-74
2024/04/02 12:35:23;;;;;;;;;;;34.60;12.30;;;;;;5050343;28;20011;-75
2024/04/02 12:37:49;;;;;;;;;;;34.70;13.40;;;;;;5051915;28;19983;-74
2024/04/02 12:40:15;;;;;;;;;;;35.20;13.00;;;;;;5049894;28;20011;-75
2024/04/02 12:42:41;;;;;;;;;;;35.50;12.20;;;;;;5033672;28;19927;-73
2024/04/02 12:45:07;;;;;;;;;;;34.80;11.50;;;;;;5051364;28;19955;-75
2024/04/02 12:47:33;;;;;;;;;;;35.20;13.00;;;;;;5050407;28;19974;-72
2024/04/02 12:50:00;;;;;;;;;;;35.50;11.80;;;;;;5050449;28;20378;-75
2024/04/02 12:52:26;;;;;;;;;;;35.20;12.10;;;;;;5049689;28;19928;-73
2024/04/02 12:54:53;;;;;;;;;;;35.10;11.40;;;;;;5050054;28;20377;-72
2024/04/02 12:57:20;;;;;;;;;;;35.70;11.20;;;;;;5050106;28;20377;-72
2024/04/02 12:59:46;;;;;;;;;;;36.10;11.40;;;;;;5050187;28;20148;-75
2024/04/02 13:02:12;;;;;;;;;;;34.50;10.70;;;;;;5049882;28;19931;-74
2024/04/02 13:04:38;;;;;;;;;;;31.40;12.90;;;;;;5056599;28;19919;-73
2024/04/02 13:07:04;;;;;;;;;;;29.40;15.80;;;;;;5040238;28;20011;-72
2024/04/02 13:09:30;;;;;;;;;;;28.60;17.40;;;;;;5039973;28;20011;-74
2024/04/02 13:11:56;;;;;;;;;;;28.10;17.60;;;;;;5055943;28;19956;-75
2024/04/02 13:14:23;;;;;;;;;;;27.90;17.60;;;;;;5057930;28;19913;-73
2024/04/02 13:16:49;;;;;;;;;;;27.10;18.30;;;;;;5056544;28;20014;-73
2024/04/02 13:19:15;;;;;;;;;;;26.50;19.30;;;;;;5056689;28;20361;-75
2024/04/02 13:21:41;;;;;;;;;;;26.50;19.20;;;;;;5039164;28;19971;-73
2024/04/02 13:24:08;;;;;;;;;;;27.60;21.20;;;;;;5056381;28;19919;-75
2024/04/02 13:26:34;;;;;;;;;;;28.20;16.00;;;;;;5056376;28;20381;-73
2024/04/02 13:29:01;;;;;;;;;;;28.30;18.10;;;;;;5056497;28;19920;-75
2024/04/02 13:31:29;;;;;;;;;;;27.10;19.30;;;;;;5055797;28;19997;-75
2024/04/02 13:33:56;;;;;;;;;;;25.60;20.60;;;;;;5056556;28;19962;-73
2024/04/02 13:36:23;;;;;;;;;;;24.90;21.20;;;;;;5039689;28;19951;-75
2024/04/02 13:39:08;;;;;;;;;;;24.40;22.80;;;;;;5057761;28;19917;-75
2024/04/02 13:41:34;;;;;;;;;;;23.80;22.60;;;;;;5055771;28;19917;-75
2024/04/02 13:44:00;;;;;;;;;;;23.60;24.90;;;;;;5056503;28;20008;-76
2024/04/02 13:46:26;;;;;;;;;;;23.40;25.30;;;;;;5056268;28;20422;-76
2024/04/02 13:48:52;;;;;;;;;;;24.40;24.90;;;;;;5057754;28;19921;-73
2024/04/02 13:51:19;;;;;;;;;;;24.10;23.80;;;;;;5055839;28;19923;-72
2024/04/02 13:53:48;;;;;;;;;;;23.60;24.20;;;;;;5056705;28;20389;-73
2024/04/02 13:56:14;;;;;;;;;;;23.50;25.50;;;;;;5056658;28;20016;-73
2024/04/02 13:58:41;;;;;;;;;;;26.00;19.70;;;;;;5039700;28;20421;-73
2024/04/02 14:01:07;;;;;;;;;;;28.00;17.00;;;;;;5055830;28;19923;-72
2024/04/02 14:03:34;;;;;;;;;;;28.40;15.30;;;;;;5056241;28;19921;-72
2024/04/02 14:06:02;;;;;;;;;;;28.30;15.50;;;;;;5039406;28;20328;-75
2024/04/02 14:08:29;;;;;;;;;;;27.90;16.60;;;;;;5056591;28;19920;-75
2024/04/02 14:11:14;;;;;;;;;;;28.40;16.40;;;;;;5055573;28;19924;-78
2024/04/02 14:13:42;;;;;;;;;;;28.90;16.80;;;;;;5057561;28;20239;-75
2024/04/02 14:16:12;;;;;;;;;;;28.40;17.80;;;;;;5053155;28;19999;-75
2024/04/02 14:18:53;;;;;;;;;;;27.90;16.80;;;;;;5053165;28;20369;-75
2024/04/02 14:21:19;;;;;;;;;;;27.40;20.00;;;;;;5053758;28;19927;-76
2024/04/02 14:23:45;;;;;;;;;;;26.60;19.60;;;;;;5053063;28;20004;-72
2024/04/02 14:26:11;;;;;;;;;;;25.80;21.10;;;;;;5052742;28;20377;-72